sensor_id;sensor_type;location;lat;lon;timestamp;P1;durP1;ratioP1;P2;durP2;ratioP2
70953;SDS011;58618;47.490;8.736;2022-12-07T00:01:53;8.98;;;5.15;;
70953;SDS011;58618;47.490;8.736;2022-12-07T00:04:40;7.10;;;4.25;;
70953;SDS011;58618;47.490;8.736;2022-12-07T00:07:28;10.27;;;5.28;;
70953;SDS011;58618;47.490;8.736;2022-12-07T00:10:15;7.68;;;5.32;;
70953;SDS011;58618;47.490;8.736;2022-12-07T00:13:03;8.23;;;5.37;;
70953;SDS011;58618;47.490;8.736;2022-12-07T00:15:50;13.93;;;6.35;;
70953;SDS011;58618;47.490;8.736;2022-12-07T00:18:39;10.50;;;5.32;;
70953;SDS011;58618;47.490;8.736;2022-12-07T00:21:28;8.48;;;4.70;;
70953;SDS011;58618;47.490;8.736;2022-12-07T00:24:16;10.45;;;4.63;;
70953;SDS011;58618;47.490;8.736;2022-12-07T00:27:04;9.17;;;4.90;;
70953;SDS011;58618;47.490;8.736;2022-12-07T00:29:51;11.35;;;5.70;;
70953;SDS011;58618;47.490;8.736;2022-12-07T00:32:38;8.98;;;4.78;;
70953;SDS011;58618;47.490;8.736;2022-12-07T00:35:27;8.82;;;4.57;;
70953;SDS011;58618;47.490;8.736;2022-12-07T00:38:14;8.10;;;4.50;;
70953;SDS011;58618;47.490;8.736;2022-12-07T00:41:02;9.27;;;4.43;;
70953;SDS011;58618;47.490;8.736;2022-12-07T00:43:51;8.75;;;6.30;;
70953;SDS011;58618;47.490;8.736;2022-12-07T00:46:39;10.88;;;5.43;;
70953;SDS011;58618;47.490;8.736;2022-12-07T00:49:26;9.07;;;5.32;;
70953;SDS011;58618;47.490;8.736;2022-12-07T00:52:15;6.20;;;3.72;;
70953;SDS011;58618;47.490;8.736;2022-12-07T00:55:02;11.63;;;5.80;;
70953;SDS011;58618;47.490;8.736;2022-12-07T00:57:50;12.40;;;5.50;;
70953;SDS011;58618;47.490;8.736;2022-12-07T01:00:39;9.82;;;5.43;;
70953;SDS011;58618;47.490;8.736;2022-12-07T01:03:27;10.85;;;4.97;;
70953;SDS011;58618;47.490;8.736;2022-12-07T01:06:15;8.00;;;4.25;;
70953;SDS011;58618;47.490;8.736;2022-12-07T01:09:04;8.37;;;4.83;;
70953;SDS011;58618;47.490;8.736;2022-12-07T01:11:52;13.82;;;5.45;;
70953;SDS011;58618;47.490;8.736;2022-12-07T01:14:41;7.40;;;4.38;;
70953;SDS011;58618;47.490;8.736;2022-12-07T01:17:28;9.93;;;5.03;;
70953;SDS011;58618;47.490;8.736;2022-12-07T01:20:16;11.63;;;6.28;;
70953;SDS011;58618;47.490;8.736;2022-12-07T01:23:03;11.10;;;5.63;;
70953;SDS011;58618;47.490;8.736;2022-12-07T01:25:55;10.75;;;5.30;;
70953;SDS011;58618;47.490;8.736;2022-12-07T01:28:43;9.65;;;5.10;;
70953;SDS011;58618;47.490;8.736;2022-12-07T01:31:30;6.45;;;3.90;;
70953;SDS011;58618;47.490;8.736;2022-12-07T01:34:18;8.27;;;5.15;;
70953;SDS011;58618;47.490;8.736;2022-12-07T01:37:05;11.00;;;4.73;;
70953;SDS011;58618;47.490;8.736;2022-12-07T01:39:52;7.63;;;4.38;;
70953;SDS011;58618;47.490;8.736;2022-12-07T01:42:41;11.52;;;5.70;;
70953;SDS011;58618;47.490;8.736;2022-12-07T01:48:27;7.35;;;4.40;;
70953;SDS011;58618;47.490;8.736;2022-12-07T01:51:18;12.20;;;5.43;;
70953;SDS011;58618;47.490;8.736;2022-12-07T01:54:06;16.00;;;7.10;;
70953;SDS011;58618;47.490;8.736;2022-12-07T01:56:54;9.05;;;5.57;;
70953;SDS011;58618;47.490;8.736;2022-12-07T01:59:45;8.95;;;5.88;;
70953;SDS011;58618;47.490;8.736;2022-12-07T02:02:36;9.85;;;5.53;;
70953;SDS011;58618;47.490;8.736;2022-12-07T02:05:28;9.37;;;4.60;;
70953;SDS011;58618;47.490;8.736;2022-12-07T02:08:15;8.90;;;4.82;;
70953;SDS011;58618;47.490;8.736;2022-12-07T02:11:04;9.73;;;5.43;;
70953;SDS011;58618;47.490;8.736;2022-12-07T02:13:53;8.98;;;4.72;;
70953;SDS011;58618;47.490;8.736;2022-12-07T02:16:46;9.45;;;5.47;;
70953;SDS011;58618;47.490;8.736;2022-12-07T02:20:00;9.53;;;4.60;;
70953;SDS011;58618;47.490;8.736;2022-12-07T02:23:12;13.40;;;5.63;;
70953;SDS011;58618;47.490;8.736;2022-12-07T02:29:52;10.45;;;5.32;;
70953;SDS011;58618;47.490;8.736;2022-12-07T02:32:48;11.15;;;5.88;;
70953;SDS011;58618;47.490;8.736;2022-12-07T02:35:43;9.20;;;4.73;;
70953;SDS011;58618;47.490;8.736;2022-12-07T02:38:35;7.55;;;4.35;;
70953;SDS011;58618;47.490;8.736;2022-12-07T02:41:27;7.28;;;4.10;;
70953;SDS011;58618;47.490;8.736;2022-12-07T02:44:17;11.30;;;5.07;;
70953;SDS011;58618;47.490;8.736;2022-12-07T02:47:09;10.32;;;5.57;;
70953;SDS011;58618;47.490;8.736;2022-12-07T02:49:59;11.87;;;5.37;;
70953;SDS011;58618;47.490;8.736;2022-12-07T02:52:49;10.13;;;3.85;;
70953;SDS011;58618;47.490;8.736;2022-12-07T02:55:37;11.15;;;5.30;;
70953;SDS011;58618;47.490;8.736;2022-12-07T02:58:31;8.48;;;4.43;;
70953;SDS011;58618;47.490;8.736;2022-12-07T03:01:27;9.13;;;5.13;;
70953;SDS011;58618;47.490;8.736;2022-12-07T03:04:29;9.77;;;4.60;;
70953;SDS011;58618;47.490;8.736;2022-12-07T03:07:25;8.65;;;4.13;;
70953;SDS011;58618;47.490;8.736;2022-12-07T03:10:27;7.65;;;3.97;;
70953;SDS011;58618;47.490;8.736;2022-12-07T03:13:23;9.00;;;4.65;;
70953;SDS011;58618;47.490;8.736;2022-12-07T03:16:15;8.68;;;4.63;;
70953;SDS011;58618;47.490;8.736;2022-12-07T03:19:06;7.80;;;4.70;;
70953;SDS011;58618;47.490;8.736;2022-12-07T03:21:58;10.25;;;5.45;;
70953;SDS011;58618;47.490;8.736;2022-12-07T03:24:49;5.32;;;3.13;;
70953;SDS011;58618;47.490;8.736;2022-12-07T03:27:41;7.57;;;4.32;;
70953;SDS011;58618;47.490;8.736;2022-12-07T03:30:33;8.00;;;3.90;;
70953;SDS011;58618;47.490;8.736;2022-12-07T03:33:27;8.83;;;5.60;;
70953;SDS011;58618;47.490;8.736;2022-12-07T03:36:19;7.72;;;4.13;;
70953;SDS011;58618;47.490;8.736;2022-12-07T03:39:19;10.70;;;5.65;;
70953;SDS011;58618;47.490;8.736;2022-12-07T03:42:12;8.63;;;4.07;;
70953;SDS011;58618;47.490;8.736;2022-12-07T03:44:59;7.60;;;4.07;;
70953;SDS011;58618;47.490;8.736;2022-12-07T03:47:50;8.43;;;3.47;;
70953;SDS011;58618;47.490;8.736;2022-12-07T03:50:42;7.13;;;3.17;;
70953;SDS011;58618;47.490;8.736;2022-12-07T03:53:36;9.60;;;5.35;;
70953;SDS011;58618;47.490;8.736;2022-12-07T03:56:30;8.38;;;4.15;;
70953;SDS011;58618;47.490;8.736;2022-12-07T03:59:19;8.10;;;4.22;;
70953;SDS011;58618;47.490;8.736;2022-12-07T04:02:08;7.50;;;4.30;;
70953;SDS011;58618;47.490;8.736;2022-12-07T04:05:00;7.32;;;4.05;;
70953;SDS011;58618;47.490;8.736;2022-12-07T04:07:47;9.20;;;4.95;;
70953;SDS011;58618;47.490;8.736;2022-12-07T04:10:35;8.73;;;4.65;;
70953;SDS011;58618;47.490;8.736;2022-12-07T04:13:24;7.65;;;4.13;;
70953;SDS011;58618;47.490;8.736;2022-12-07T04:16:11;6.87;;;4.03;;
70953;SDS011;58618;47.490;8.736;2022-12-07T04:18:59;7.88;;;4.43;;
70953;SDS011;58618;47.490;8.736;2022-12-07T04:21:46;6.07;;;4.40;;
70953;SDS011;58618;47.490;8.736;2022-12-07T04:24:34;7.65;;;4.85;;
70953;SDS011;58618;47.490;8.736;2022-12-07T04:27:22;7.32;;;4.53;;
70953;SDS011;58618;47.490;8.736;2022-12-07T04:30:11;6.33;;;3.80;;
70953;SDS011;58618;47.490;8.736;2022-12-07T04:32:58;9.60;;;5.35;;
70953;SDS011;58618;47.490;8.736;2022-12-07T04:35:46;9.73;;;4.65;;
70953;SDS011;58618;47.490;8.736;2022-12-07T04:38:33;8.65;;;4.22;;
70953;SDS011;58618;47.490;8.736;2022-12-07T04:41:21;7.10;;;4.70;;
70953;SDS011;58618;47.490;8.736;2022-12-07T04:44:13;9.77;;;5.17;;
70953;SDS011;58618;47.490;8.736;2022-12-07T04:47:05;7.95;;;4.35;;
70953;SDS011;58618;47.490;8.736;2022-12-07T04:49:52;7.85;;;4.63;;
70953;SDS011;58618;47.490;8.736;2022-12-07T04:52:39;8.07;;;3.42;;
70953;SDS011;58618;47.490;8.736;2022-12-07T04:55:27;9.02;;;5.25;;
70953;SDS011;58618;47.490;8.736;2022-12-07T04:58:14;8.80;;;3.97;;
70953;SDS011;58618;47.490;8.736;2022-12-07T05:01:01;9.65;;;4.47;;
70953;SDS011;58618;47.490;8.736;2022-12-07T05:03:50;11.13;;;5.93;;
70953;SDS011;58618;47.490;8.736;2022-12-07T05:06:38;10.75;;;5.35;;
70953;SDS011;58618;47.490;8.736;2022-12-07T05:09:26;8.25;;;4.05;;
70953;SDS011;58618;47.490;8.736;2022-12-07T05:12:13;7.20;;;4.63;;
70953;SDS011;58618;47.490;8.736;2022-12-07T05:15:00;7.18;;;4.60;;
70953;SDS011;58618;47.490;8.736;2022-12-07T05:17:48;6.70;;;4.68;;
70953;SDS011;58618;47.490;8.736;2022-12-07T05:20:36;8.95;;;4.18;;
70953;SDS011;58618;47.490;8.736;2022-12-07T05:23:24;8.50;;;5.00;;
70953;SDS011;58618;47.490;8.736;2022-12-07T05:26:11;6.27;;;3.90;;
70953;SDS011;58618;47.490;8.736;2022-12-07T05:28:59;6.88;;;4.03;;
70953;SDS011;58618;47.490;8.736;2022-12-07T05:31:46;9.57;;;5.72;;
70953;SDS011;58618;47.490;8.736;2022-12-07T05:34:34;15.27;;;5.47;;
70953;SDS011;58618;47.490;8.736;2022-12-07T05:37:24;6.72;;;4.05;;
70953;SDS011;58618;47.490;8.736;2022-12-07T05:40:12;8.83;;;5.20;;
70953;SDS011;58618;47.490;8.736;2022-12-07T05:43:00;10.55;;;5.55;;
70953;SDS011;58618;47.490;8.736;2022-12-07T05:45:48;7.00;;;4.65;;
70953;SDS011;58618;47.490;8.736;2022-12-07T05:48:35;7.75;;;3.97;;
70953;SDS011;58618;47.490;8.736;2022-12-07T05:51:22;17.67;;;5.22;;
70953;SDS011;58618;47.490;8.736;2022-12-07T05:54:11;7.60;;;3.77;;
70953;SDS011;58618;47.490;8.736;2022-12-07T05:56:59;12.45;;;4.70;;
70953;SDS011;58618;47.490;8.736;2022-12-07T05:59:46;11.95;;;5.68;;
70953;SDS011;58618;47.490;8.736;2022-12-07T06:02:33;9.60;;;4.88;;
70953;SDS011;58618;47.490;8.736;2022-12-07T06:05:20;6.00;;;3.88;;
70953;SDS011;58618;47.490;8.736;2022-12-07T06:08:07;10.70;;;4.80;;
70953;SDS011;58618;47.490;8.736;2022-12-07T06:10:56;9.57;;;4.32;;
70953;SDS011;58618;47.490;8.736;2022-12-07T06:13:57;10.75;;;5.40;;
70953;SDS011;58618;47.490;8.736;2022-12-07T06:16:45;7.38;;;4.38;;
70953;SDS011;58618;47.490;8.736;2022-12-07T06:19:32;7.72;;;4.22;;
70953;SDS011;58618;47.490;8.736;2022-12-07T06:22:21;11.87;;;5.30;;
70953;SDS011;58618;47.490;8.736;2022-12-07T06:25:08;9.68;;;4.95;;
70953;SDS011;58618;47.490;8.736;2022-12-07T06:27:57;8.35;;;5.10;;
70953;SDS011;58618;47.490;8.736;2022-12-07T06:30:44;11.82;;;5.13;;
70953;SDS011;58618;47.490;8.736;2022-12-07T06:33:32;9.90;;;5.47;;
70953;SDS011;58618;47.490;8.736;2022-12-07T06:36:19;11.13;;;5.03;;
70953;SDS011;58618;47.490;8.736;2022-12-07T06:39:07;9.13;;;4.13;;
70953;SDS011;58618;47.490;8.736;2022-12-07T06:41:55;12.55;;;5.90;;
70953;SDS011;58618;47.490;8.736;2022-12-07T06:44:44;12.82;;;5.78;;
70953;SDS011;58618;47.490;8.736;2022-12-07T06:47:31;16.33;;;6.13;;
70953;SDS011;58618;47.490;8.736;2022-12-07T06:50:19;9.60;;;5.07;;
70953;SDS011;58618;47.490;8.736;2022-12-07T06:53:07;9.20;;;5.88;;
70953;SDS011;58618;47.490;8.736;2022-12-07T06:55:56;10.27;;;5.72;;
70953;SDS011;58618;47.490;8.736;2022-12-07T06:58:43;9.43;;;5.18;;
70953;SDS011;58618;47.490;8.736;2022-12-07T07:01:32;12.73;;;5.78;;
70953;SDS011;58618;47.490;8.736;2022-12-07T07:04:20;10.80;;;5.67;;
70953;SDS011;58618;47.490;8.736;2022-12-07T07:07:08;8.18;;;5.07;;
70953;SDS011;58618;47.490;8.736;2022-12-07T07:09:55;11.23;;;6.20;;
70953;SDS011;58618;47.490;8.736;2022-12-07T07:12:42;7.70;;;5.13;;
70953;SDS011;58618;47.490;8.736;2022-12-07T07:15:32;16.08;;;6.88;;
70953;SDS011;58618;47.490;8.736;2022-12-07T07:18:21;15.27;;;6.27;;
70953;SDS011;58618;47.490;8.736;2022-12-07T07:21:08;9.95;;;5.03;;
70953;SDS011;58618;47.490;8.736;2022-12-07T07:23:56;12.57;;;6.30;;
70953;SDS011;58618;47.490;8.736;2022-12-07T07:26:43;10.88;;;5.38;;
70953;SDS011;58618;47.490;8.736;2022-12-07T07:29:31;12.75;;;6.78;;
70953;SDS011;58618;47.490;8.736;2022-12-07T07:32:18;10.60;;;5.73;;
70953;SDS011;58618;47.490;8.736;2022-12-07T07:35:08;8.57;;;5.00;;
70953;SDS011;58618;47.490;8.736;2022-12-07T07:37:56;11.52;;;5.78;;
70953;SDS011;58618;47.490;8.736;2022-12-07T07:40:43;10.02;;;5.55;;
70953;SDS011;58618;47.490;8.736;2022-12-07T07:43:33;8.65;;;4.60;;
70953;SDS011;58618;47.490;8.736;2022-12-07T07:46:20;7.87;;;4.50;;
70953;SDS011;58618;47.490;8.736;2022-12-07T07:49:08;10.55;;;5.22;;
70953;SDS011;58618;47.490;8.736;2022-12-07T07:51:57;12.68;;;5.93;;
70953;SDS011;58618;47.490;8.736;2022-12-07T07:54:45;8.43;;;5.97;;
70953;SDS011;58618;47.490;8.736;2022-12-07T07:57:32;9.15;;;5.75;;
70953;SDS011;58618;47.490;8.736;2022-12-07T08:00:20;10.17;;;5.40;;
70953;SDS011;58618;47.490;8.736;2022-12-07T08:03:08;10.30;;;5.25;;
70953;SDS011;58618;47.490;8.736;2022-12-07T08:05:56;10.50;;;5.13;;
70953;SDS011;58618;47.490;8.736;2022-12-07T08:08:44;11.45;;;5.97;;
70953;SDS011;58618;47.490;8.736;2022-12-07T08:11:32;10.25;;;4.55;;
70953;SDS011;58618;47.490;8.736;2022-12-07T08:14:19;17.40;;;6.03;;
70953;SDS011;58618;47.490;8.736;2022-12-07T08:17:07;10.13;;;5.45;;
70953;SDS011;58618;47.490;8.736;2022-12-07T08:19:55;12.63;;;5.40;;
70953;SDS011;58618;47.490;8.736;2022-12-07T08:22:42;9.20;;;4.95;;
70953;SDS011;58618;47.490;8.736;2022-12-07T08:25:31;7.40;;;5.15;;
70953;SDS011;58618;47.490;8.736;2022-12-07T08:28:19;17.60;;;6.07;;
70953;SDS011;58618;47.490;8.736;2022-12-07T08:31:08;8.43;;;4.35;;
70953;SDS011;58618;47.490;8.736;2022-12-07T08:33:58;11.65;;;4.93;;
70953;SDS011;58618;47.490;8.736;2022-12-07T08:36:45;11.95;;;5.47;;
70953;SDS011;58618;47.490;8.736;2022-12-07T08:39:33;11.70;;;5.20;;
70953;SDS011;58618;47.490;8.736;2022-12-07T08:42:22;9.83;;;4.70;;
70953;SDS011;58618;47.490;8.736;2022-12-07T08:45:14;12.38;;;5.03;;
70953;SDS011;58618;47.490;8.736;2022-12-07T08:48:04;15.07;;;6.47;;
70953;SDS011;58618;47.490;8.736;2022-12-07T08:50:56;12.68;;;5.30;;
70953;SDS011;58618;47.490;8.736;2022-12-07T08:53:44;9.98;;;4.57;;
70953;SDS011;58618;47.490;8.736;2022-12-07T08:56:31;7.83;;;4.50;;
70953;SDS011;58618;47.490;8.736;2022-12-07T08:59:20;10.23;;;4.93;;
70953;SDS011;58618;47.490;8.736;2022-12-07T09:02:08;12.82;;;6.32;;
70953;SDS011;58618;47.490;8.736;2022-12-07T09:04:56;14.07;;;5.95;;
70953;SDS011;58618;47.490;8.736;2022-12-07T09:07:43;11.52;;;5.40;;
70953;SDS011;58618;47.490;8.736;2022-12-07T09:10:35;8.50;;;5.50;;
70953;SDS011;58618;47.490;8.736;2022-12-07T09:13:22;15.57;;;6.13;;
70953;SDS011;58618;47.490;8.736;2022-12-07T09:16:11;13.77;;;5.55;;
70953;SDS011;58618;47.490;8.736;2022-12-07T09:18:59;12.15;;;6.32;;
70953;SDS011;58618;47.490;8.736;2022-12-07T09:21:46;13.52;;;6.30;;
70953;SDS011;58618;47.490;8.736;2022-12-07T09:24:33;13.87;;;5.40;;
70953;SDS011;58618;47.490;8.736;2022-12-07T09:27:21;15.40;;;6.82;;
70953;SDS011;58618;47.490;8.736;2022-12-07T09:30:09;9.35;;;5.70;;
70953;SDS011;58618;47.490;8.736;2022-12-07T09:32:58;16.95;;;6.20;;
70953;SDS011;58618;47.490;8.736;2022-12-07T09:35:45;13.52;;;5.90;;
70953;SDS011;58618;47.490;8.736;2022-12-07T09:38:33;10.17;;;6.20;;
70953;SDS011;58618;47.490;8.736;2022-12-07T09:41:21;14.85;;;5.78;;
70953;SDS011;58618;47.490;8.736;2022-12-07T09:44:12;12.98;;;5.07;;
70953;SDS011;58618;47.490;8.736;2022-12-07T09:47:01;11.38;;;6.38;;
70953;SDS011;58618;47.490;8.736;2022-12-07T09:49:50;8.43;;;4.82;;
70953;SDS011;58618;47.490;8.736;2022-12-07T09:52:38;11.20;;;6.27;;
70953;SDS011;58618;47.490;8.736;2022-12-07T09:55:28;15.25;;;6.97;;
70953;SDS011;58618;47.490;8.736;2022-12-07T09:58:19;9.75;;;5.40;;
70953;SDS011;58618;47.490;8.736;2022-12-07T10:01:10;12.10;;;5.60;;
70953;SDS011;58618;47.490;8.736;2022-12-07T10:04:01;12.57;;;5.43;;
70953;SDS011;58618;47.490;8.736;2022-12-07T10:07:00;16.53;;;4.37;;
70953;SDS011;58618;47.490;8.736;2022-12-07T10:09:47;10.40;;;4.93;;
70953;SDS011;58618;47.490;8.736;2022-12-07T10:12:42;12.48;;;5.30;;
70953;SDS011;58618;47.490;8.736;2022-12-07T10:15:41;11.40;;;5.55;;
70953;SDS011;58618;47.490;8.736;2022-12-07T10:18:32;10.07;;;5.97;;
70953;SDS011;58618;47.490;8.736;2022-12-07T10:21:22;11.53;;;5.70;;
70953;SDS011;58618;47.490;8.736;2022-12-07T10:24:14;11.50;;;5.10;;
70953;SDS011;58618;47.490;8.736;2022-12-07T10:27:02;9.18;;;5.05;;
70953;SDS011;58618;47.490;8.736;2022-12-07T10:29:50;7.47;;;4.10;;
70953;SDS011;58618;47.490;8.736;2022-12-07T10:32:39;7.88;;;4.07;;
70953;SDS011;58618;47.490;8.736;2022-12-07T10:35:27;11.07;;;4.80;;
70953;SDS011;58618;47.490;8.736;2022-12-07T10:38:16;6.70;;;4.22;;
70953;SDS011;58618;47.490;8.736;2022-12-07T10:41:05;9.40;;;4.57;;
70953;SDS011;58618;47.490;8.736;2022-12-07T10:43:55;8.25;;;4.60;;
70953;SDS011;58618;47.490;8.736;2022-12-07T10:46:51;9.70;;;5.35;;
70953;SDS011;58618;47.490;8.736;2022-12-07T10:53:11;9.68;;;5.15;;
70953;SDS011;58618;47.490;8.736;2022-12-07T10:59:38;8.70;;;3.85;;
70953;SDS011;58618;47.490;8.736;2022-12-07T11:06:02;7.47;;;4.37;;
70953;SDS011;58618;47.490;8.736;2022-12-07T11:09:04;9.07;;;3.95;;
70953;SDS011;58618;47.490;8.736;2022-12-07T11:12:15;9.48;;;4.40;;
70953;SDS011;58618;47.490;8.736;2022-12-07T11:15:12;7.40;;;4.35;;
70953;SDS011;58618;47.490;8.736;2022-12-07T11:18:06;6.88;;;4.25;;
70953;SDS011;58618;47.490;8.736;2022-12-07T11:20:59;7.83;;;4.13;;
70953;SDS011;58618;47.490;8.736;2022-12-07T11:23:56;7.82;;;3.78;;
70953;SDS011;58618;47.490;8.736;2022-12-07T11:26:54;7.40;;;3.88;;
70953;SDS011;58618;47.490;8.736;2022-12-07T11:30:10;11.50;;;5.50;;
70953;SDS011;58618;47.490;8.736;2022-12-07T11:33:04;8.65;;;4.47;;
70953;SDS011;58618;47.490;8.736;2022-12-07T11:36:07;8.47;;;3.20;;
70953;SDS011;58618;47.490;8.736;2022-12-07T11:39:04;5.88;;;3.75;;
70953;SDS011;58618;47.490;8.736;2022-12-07T11:42:00;8.60;;;3.55;;
70953;SDS011;58618;47.490;8.736;2022-12-07T11:44:52;6.63;;;3.28;;
70953;SDS011;58618;47.490;8.736;2022-12-07T11:47:47;9.15;;;4.32;;
70953;SDS011;58618;47.490;8.736;2022-12-07T11:50:40;7.80;;;3.40;;
70953;SDS011;58618;47.490;8.736;2022-12-07T11:53:31;6.00;;;3.45;;
70953;SDS011;58618;47.490;8.736;2022-12-07T11:56:23;7.35;;;3.95;;
70953;SDS011;58618;47.490;8.736;2022-12-07T11:59:13;7.85;;;4.68;;
70953;SDS011;58618;47.490;8.736;2022-12-07T12:02:11;7.25;;;4.28;;
70953;SDS011;58618;47.490;8.736;2022-12-07T12:05:13;7.00;;;3.83;;
70953;SDS011;58618;47.490;8.736;2022-12-07T12:08:05;9.48;;;4.75;;
70953;SDS011;58618;47.490;8.736;2022-12-07T12:11:03;6.30;;;3.22;;
70953;SDS011;58618;47.490;8.736;2022-12-07T12:14:19;7.32;;;3.90;;
70953;SDS011;58618;47.490;8.736;2022-12-07T12:17:38;7.10;;;3.83;;
70953;SDS011;58618;47.490;8.736;2022-12-07T12:20:40;6.17;;;3.83;;
70953;SDS011;58618;47.490;8.736;2022-12-07T12:23:34;7.20;;;2.97;;
70953;SDS011;58618;47.490;8.736;2022-12-07T12:26:27;6.15;;;3.58;;
70953;SDS011;58618;47.490;8.736;2022-12-07T12:29:19;6.28;;;3.88;;
70953;SDS011;58618;47.490;8.736;2022-12-07T12:32:14;7.45;;;3.78;;
70953;SDS011;58618;47.490;8.736;2022-12-07T12:35:21;8.17;;;4.50;;
70953;SDS011;58618;47.490;8.736;2022-12-07T12:38:29;7.40;;;3.58;;
70953;SDS011;58618;47.490;8.736;2022-12-07T12:41:51;6.28;;;3.65;;
70953;SDS011;58618;47.490;8.736;2022-12-07T12:45:05;6.55;;;3.35;;
70953;SDS011;58618;47.490;8.736;2022-12-07T12:54:27;6.30;;;3.10;;
70953;SDS011;58618;47.490;8.736;2022-12-07T12:57:17;5.68;;;3.55;;
70953;SDS011;58618;47.490;8.736;2022-12-07T13:00:15;5.18;;;3.22;;
70953;SDS011;58618;47.490;8.736;2022-12-07T13:03:04;8.93;;;3.80;;
70953;SDS011;58618;47.490;8.736;2022-12-07T13:09:16;7.07;;;3.03;;
70953;SDS011;58618;47.490;8.736;2022-12-07T13:12:13;8.07;;;4.05;;
70953;SDS011;58618;47.490;8.736;2022-12-07T13:15:02;6.28;;;3.75;;
70953;SDS011;58618;47.490;8.736;2022-12-07T13:18:00;5.10;;;3.50;;
70953;SDS011;58618;47.490;8.736;2022-12-07T13:20:54;7.40;;;4.10;;
70953;SDS011;58618;47.490;8.736;2022-12-07T13:23:52;4.78;;;3.22;;
70953;SDS011;58618;47.490;8.736;2022-12-07T13:26:42;7.28;;;4.28;;
70953;SDS011;58618;47.490;8.736;2022-12-07T13:29:35;6.80;;;3.67;;
70953;SDS011;58618;47.490;8.736;2022-12-07T13:32:24;5.95;;;3.47;;
70953;SDS011;58618;47.490;8.736;2022-12-07T13:35:30;8.30;;;3.83;;
70953;SDS011;58618;47.490;8.736;2022-12-07T13:38:22;7.22;;;3.47;;
70953;SDS011;58618;47.490;8.736;2022-12-07T13:41:13;7.18;;;3.50;;
70953;SDS011;58618;47.490;8.736;2022-12-07T13:44:02;5.30;;;3.17;;
70953;SDS011;58618;47.490;8.736;2022-12-07T13:46:59;6.55;;;3.40;;
70953;SDS011;58618;47.490;8.736;2022-12-07T13:49:52;6.47;;;3.43;;
70953;SDS011;58618;47.490;8.736;2022-12-07T13:52:43;5.95;;;3.50;;
70953;SDS011;58618;47.490;8.736;2022-12-07T13:55:31;5.20;;;3.28;;
70953;SDS011;58618;47.490;8.736;2022-12-07T13:58:19;6.63;;;3.28;;
70953;SDS011;58618;47.490;8.736;2022-12-07T14:01:06;8.43;;;3.80;;
70953;SDS011;58618;47.490;8.736;2022-12-07T14:03:55;6.90;;;3.57;;
70953;SDS011;58618;47.490;8.736;2022-12-07T14:07:18;7.22;;;3.17;;
70953;SDS011;58618;47.490;8.736;2022-12-07T14:10:22;8.05;;;3.72;;
70953;SDS011;58618;47.490;8.736;2022-12-07T14:13:22;5.32;;;3.08;;
70953;SDS011;58618;47.490;8.736;2022-12-07T14:16:18;6.78;;;4.00;;
70953;SDS011;58618;47.490;8.736;2022-12-07T14:22:31;4.95;;;2.63;;
70953;SDS011;58618;47.490;8.736;2022-12-07T14:25:20;6.03;;;3.67;;
70953;SDS011;58618;47.490;8.736;2022-12-07T14:28:09;4.38;;;3.13;;
70953;SDS011;58618;47.490;8.736;2022-12-07T14:31:13;6.38;;;3.35;;
70953;SDS011;58618;47.490;8.736;2022-12-07T14:34:01;4.97;;;2.60;;
70953;SDS011;58618;47.490;8.736;2022-12-07T14:36:50;5.03;;;3.17;;
70953;SDS011;58618;47.490;8.736;2022-12-07T14:39:40;4.35;;;2.75;;
70953;SDS011;58618;47.490;8.736;2022-12-07T14:42:35;9.40;;;3.70;;
70953;SDS011;58618;47.490;8.736;2022-12-07T14:45:22;5.50;;;3.08;;
70953;SDS011;58618;47.490;8.736;2022-12-07T14:48:10;5.93;;;2.83;;
70953;SDS011;58618;47.490;8.736;2022-12-07T14:50:58;5.38;;;3.20;;
70953;SDS011;58618;47.490;8.736;2022-12-07T14:53:48;5.40;;;3.25;;
70953;SDS011;58618;47.490;8.736;2022-12-07T14:56:37;9.02;;;3.80;;
70953;SDS011;58618;47.490;8.736;2022-12-07T14:59:25;10.25;;;3.67;;
70953;SDS011;58618;47.490;8.736;2022-12-07T15:02:13;7.83;;;3.37;;
70953;SDS011;58618;47.490;8.736;2022-12-07T15:05:01;5.90;;;3.47;;
70953;SDS011;58618;47.490;8.736;2022-12-07T15:07:48;5.70;;;3.03;;
70953;SDS011;58618;47.490;8.736;2022-12-07T15:10:38;6.75;;;2.63;;
70953;SDS011;58618;47.490;8.736;2022-12-07T15:13:25;9.85;;;3.95;;
70953;SDS011;58618;47.490;8.736;2022-12-07T15:16:30;5.97;;;3.33;;
70953;SDS011;58618;47.490;8.736;2022-12-07T15:19:19;5.75;;;3.35;;
70953;SDS011;58618;47.490;8.736;2022-12-07T15:22:08;4.15;;;2.53;;
70953;SDS011;58618;47.490;8.736;2022-12-07T15:24:56;4.07;;;2.50;;
70953;SDS011;58618;47.490;8.736;2022-12-07T15:27:45;11.00;;;3.92;;
70953;SDS011;58618;47.490;8.736;2022-12-07T15:30:33;4.83;;;2.70;;
70953;SDS011;58618;47.490;8.736;2022-12-07T15:33:20;5.60;;;3.90;;
70953;SDS011;58618;47.490;8.736;2022-12-07T15:36:08;6.47;;;3.58;;
70953;SDS011;58618;47.490;8.736;2022-12-07T15:39:04;4.65;;;2.80;;
70953;SDS011;58618;47.490;8.736;2022-12-07T15:41:52;7.43;;;3.78;;
70953;SDS011;58618;47.490;8.736;2022-12-07T15:44:41;5.70;;;3.60;;
70953;SDS011;58618;47.490;8.736;2022-12-07T15:47:46;6.20;;;2.88;;
70953;SDS011;58618;47.490;8.736;2022-12-07T15:50:33;6.55;;;3.60;;
70953;SDS011;58618;47.490;8.736;2022-12-07T15:53:20;5.25;;;2.83;;
70953;SDS011;58618;47.490;8.736;2022-12-07T15:56:09;5.18;;;3.00;;
70953;SDS011;58618;47.490;8.736;2022-12-07T15:58:56;5.63;;;2.47;;
70953;SDS011;58618;47.490;8.736;2022-12-07T16:01:45;4.63;;;3.13;;
70953;SDS011;58618;47.490;8.736;2022-12-07T16:04:32;6.65;;;3.83;;
70953;SDS011;58618;47.490;8.736;2022-12-07T16:07:20;3.67;;;2.53;;
70953;SDS011;58618;47.490;8.736;2022-12-07T16:10:07;8.35;;;3.22;;
70953;SDS011;58618;47.490;8.736;2022-12-07T16:12:55;5.60;;;3.33;;
70953;SDS011;58618;47.490;8.736;2022-12-07T16:15:43;2.90;;;2.20;;
70953;SDS011;58618;47.490;8.736;2022-12-07T16:18:32;5.22;;;2.83;;
70953;SDS011;58618;47.490;8.736;2022-12-07T16:21:19;7.35;;;3.40;;
70953;SDS011;58618;47.490;8.736;2022-12-07T16:24:07;5.47;;;2.67;;
70953;SDS011;58618;47.490;8.736;2022-12-07T16:26:55;5.77;;;2.90;;
70953;SDS011;58618;47.490;8.736;2022-12-07T16:29:43;5.70;;;2.47;;
70953;SDS011;58618;47.490;8.736;2022-12-07T16:32:31;4.53;;;2.70;;
70953;SDS011;58618;47.490;8.736;2022-12-07T16:35:19;5.03;;;3.22;;
70953;SDS011;58618;47.490;8.736;2022-12-07T16:38:07;3.80;;;2.60;;
70953;SDS011;58618;47.490;8.736;2022-12-07T16:40:54;5.10;;;1.77;;
70953;SDS011;58618;47.490;8.736;2022-12-07T16:43:42;3.17;;;1.95;;
70953;SDS011;58618;47.490;8.736;2022-12-07T16:46:31;5.90;;;2.70;;
70953;SDS011;58618;47.490;8.736;2022-12-07T16:49:19;4.35;;;2.47;;
70953;SDS011;58618;47.490;8.736;2022-12-07T16:52:08;3.25;;;2.30;;
70953;SDS011;58618;47.490;8.736;2022-12-07T16:54:55;2.47;;;1.53;;
70953;SDS011;58618;47.490;8.736;2022-12-07T16:57:42;3.95;;;2.08;;
70953;SDS011;58618;47.490;8.736;2022-12-07T17:00:30;3.15;;;2.20;;
70953;SDS011;58618;47.490;8.736;2022-12-07T17:03:17;3.40;;;2.15;;
70953;SDS011;58618;47.490;8.736;2022-12-07T17:06:10;2.13;;;1.83;;
70953;SDS011;58618;47.490;8.736;2022-12-07T17:09:01;4.87;;;2.03;;
70953;SDS011;58618;47.490;8.736;2022-12-07T17:11:50;3.17;;;1.73;;
70953;SDS011;58618;47.490;8.736;2022-12-07T17:14:37;4.68;;;2.17;;
70953;SDS011;58618;47.490;8.736;2022-12-07T17:17:42;3.85;;;2.25;;
70953;SDS011;58618;47.490;8.736;2022-12-07T17:20:30;3.20;;;2.13;;
70953;SDS011;58618;47.490;8.736;2022-12-07T17:23:17;3.87;;;2.10;;
70953;SDS011;58618;47.490;8.736;2022-12-07T17:26:07;4.15;;;2.58;;
70953;SDS011;58618;47.490;8.736;2022-12-07T17:28:58;4.18;;;3.03;;
70953;SDS011;58618;47.490;8.736;2022-12-07T17:31:46;4.20;;;2.40;;
70953;SDS011;58618;47.490;8.736;2022-12-07T17:34:35;3.97;;;2.83;;